Time;durP1;ratioP1;P1;durP2;ratioP2;P2;SDS_P1;SDS_P2;PMS_P1;PMS_P2;Temp;Humidity;BMP_temperature;BMP_pressure;BME280_temperature;BME280_humidity;BME280_pressure;Samples;Min_cycle;Max_cycle;Signal;HPM_P1;HPM_P2
2022/03/18 00:00:20;;;;;;;12.80;5.55;;;;;;;;;;5094576;28;20058;-41
2022/03/18 00:02:46;;;;;;;24.33;6.72;;;;;;;;;;5095525;28;20065;-41
2022/03/18 00:05:12;;;;;;;21.75;5.65;;;;;;;;;;5100519;28;20119;-45
2022/03/18 00:07:38;;;;;;;9.95;6.55;;;;;;;;;;5097898;28;20036;-42
2022/03/18 00:10:04;;;;;;;24.33;6.13;;;;;;;;;;5098327;28;20058;-41
2022/03/18 00:12:29;;;;;;;16.70;6.57;;;;;;;;;;5095165;28;20059;-43
2022/03/18 00:14:55;;;;;;;21.02;7.57;;;;;;;;;;5095229;28;20055;-42
2022/03/18 00:17:20;;;;;;;20.92;7.63;;;;;;;;;;5096995;28;20040;-41
2022/03/18 00:19:45;;;;;;;12.15;4.55;;;;;;;;;;5095233;28;20064;-42
2022/03/18 00:22:12;;;;;;;14.10;4.78;;;;;;;;;;5095283;28;20431;-44
2022/03/18 00:24:38;;;;;;;34.53;8.30;;;;;;;;;;5093980;28;20040;-41
2022/03/18 00:27:03;;;;;;;26.50;7.43;;;;;;;;;;5095847;28;20050;-43
2022/03/18 00:29:29;;;;;;;14.15;4.78;;;;;;;;;;5093489;28;20039;-41
2022/03/18 00:31:54;;;;;;;16.75;4.10;;;;;;;;;;5096441;28;20063;-42
2022/03/18 00:34:20;;;;;;;25.35;7.15;;;;;;;;;;5097269;28;20404;-40
2022/03/18 00:36:45;;;;;;;17.50;5.80;;;;;;;;;;5096428;28;20102;-43
2022/03/18 00:39:10;;;;;;;16.42;6.28;;;;;;;;;;5099756;28;20058;-44
2022/03/18 00:41:36;;;;;;;30.45;7.30;;;;;;;;;;5099765;28;20116;-46
2022/03/18 00:44:01;;;;;;;27.77;5.70;;;;;;;;;;5096391;28;20043;-44
2022/03/18 00:46:26;;;;;;;15.57;6.43;;;;;;;;;;5093208;28;20059;-43
2022/03/18 00:54:20;;;;;;;28.45;6.20;;;;;;;;;;5097310;28;20047;-42
2022/03/18 00:56:45;;;;;;;27.52;6.45;;;;;;;;;;5095044;28;20044;-44
2022/03/18 00:59:10;;;;;;;15.18;6.85;;;;;;;;;;5095102;28;20047;-41
2022/03/18 01:01:36;;;;;;;27.23;6.72;;;;;;;;;;5098048;28;20407;-40
2022/03/18 01:04:01;;;;;;;13.18;6.32;;;;;;;;;;5094432;28;20074;-43
2022/03/18 01:06:26;;;;;;;18.80;6.18;;;;;;;;;;5095803;28;20096;-41
2022/03/18 01:08:52;;;;;;;17.90;4.95;;;;;;;;;;5094674;28;20051;-42
2022/03/18 01:11:17;;;;;;;6.03;3.22;;;;;;;;;;5097187;28;20051;-44
2022/03/18 01:13:42;;;;;;;11.70;6.03;;;;;;;;;;5098104;28;20411;-44
2022/03/18 01:16:08;;;;;;;11.23;4.55;;;;;;;;;;5095935;28;20044;-44
2022/03/18 01:18:33;;;;;;;16.05;5.40;;;;;;;;;;5097722;28;20051;-40
2022/03/18 01:20:58;;;;;;;18.00;5.70;;;;;;;;;;5097275;28;20035;-44
2022/03/18 01:23:24;;;;;;;13.55;5.60;;;;;;;;;;5099268;28;20043;-41
2022/03/18 01:25:49;;;;;;;21.73;4.50;;;;;;;;;;5098187;28;20051;-41
2022/03/18 01:28:15;;;;;;;21.67;6.72;;;;;;;;;;5101228;28;20644;-43
2022/03/18 01:30:41;;;;;;;20.23;5.97;;;;;;;;;;5100971;28;20150;-41
2022/03/18 01:33:06;;;;;;;14.48;3.80;;;;;;;;;;5097259;28;20576;-41
2022/03/18 01:35:31;;;;;;;9.55;2.75;;;;;;;;;;5099120;28;20108;-44
2022/03/18 01:37:57;;;;;;;29.13;7.43;;;;;;;;;;5098349;28;20075;-43
2022/03/18 01:40:22;;;;;;;15.07;4.65;;;;;;;;;;5099040;28;20429;-40
2022/03/18 01:42:47;;;;;;;24.77;5.35;;;;;;;;;;5101268;28;20472;-44
2022/03/18 01:45:13;;;;;;;27.40;3.67;;;;;;;;;;5097741;28;20139;-42
2022/03/18 01:47:42;;;;;;;9.85;3.35;;;;;;;;;;5099886;28;20048;-41
2022/03/18 01:50:09;;;;;;;11.68;3.72;;;;;;;;;;5097672;28;20138;-40
2022/03/18 01:52:34;;;;;;;14.18;4.10;;;;;;;;;;5098426;28;20039;-40
2022/03/18 01:55:00;;;;;;;7.20;3.45;;;;;;;;;;5097374;27;20043;-40
2022/03/18 01:57:28;;;;;;;7.85;4.38;;;;;;;;;;5100489;28;20048;-43
2022/03/18 01:59:54;;;;;;;15.00;5.05;;;;;;;;;;5096291;28;20583;-40
2022/03/18 02:02:19;;;;;;;10.02;5.20;;;;;;;;;;5094040;28;20111;-40
2022/03/18 02:04:45;;;;;;;17.60;4.70;;;;;;;;;;5097352;28;20464;-41
2022/03/18 02:07:10;;;;;;;16.45;5.55;;;;;;;;;;5101508;28;20110;-40
2022/03/18 02:09:36;;;;;;;28.40;9.43;;;;;;;;;;5099363;28;20070;-40
2022/03/18 02:12:02;;;;;;;13.40;4.90;;;;;;;;;;5099889;28;20040;-40
2022/03/18 02:14:31;;;;;;;14.10;5.13;;;;;;;;;;5099951;28;20080;-43
2022/03/18 02:16:56;;;;;;;14.93;7.53;;;;;;;;;;5095475;28;20097;-44
2022/03/18 02:19:21;;;;;;;18.48;6.70;;;;;;;;;;5098301;28;20040;-44
2022/03/18 02:21:48;;;;;;;6.00;3.85;;;;;;;;;;5099305;28;20622;-44
2022/03/18 02:24:14;;;;;;;10.10;4.88;;;;;;;;;;5094701;28;20040;-41
2022/03/18 02:26:39;;;;;;;15.70;5.95;;;;;;;;;;5097873;28;20454;-43
2022/03/18 02:29:04;;;;;;;7.70;3.20;;;;;;;;;;5098151;28;20047;-41
2022/03/18 02:31:30;;;;;;;15.43;7.22;;;;;;;;;;5101149;28;20720;-41
2022/03/18 02:33:56;;;;;;;13.15;6.90;;;;;;;;;;5096078;27;20044;-46
2022/03/18 02:36:21;;;;;;;10.80;4.28;;;;;;;;;;5099090;28;20085;-44
2022/03/18 02:38:46;;;;;;;8.73;4.60;;;;;;;;;;5096883;28;20040;-40
2022/03/18 02:41:12;;;;;;;10.68;4.75;;;;;;;;;;5099401;28;20789;-46
2022/03/18 02:43:38;;;;;;;8.80;3.40;;;;;;;;;;5097080;28;20577;-40
2022/03/18 02:46:03;;;;;;;15.38;5.47;;;;;;;;;;5094553;28;20048;-41
2022/03/18 02:48:28;;;;;;;14.23;5.10;;;;;;;;;;5097286;28;20559;-41
2022/03/18 02:50:54;;;;;;;9.00;4.10;;;;;;;;;;5097156;28;20054;-40
2022/03/18 02:53:19;;;;;;;6.72;4.95;;;;;;;;;;5098543;28;20138;-42
2022/03/18 02:55:44;;;;;;;12.48;3.85;;;;;;;;;;5098954;27;20769;-43
2022/03/18 02:58:09;;;;;;;8.95;3.92;;;;;;;;;;5095922;28;20047;-42
2022/03/18 03:00:35;;;;;;;8.57;4.78;;;;;;;;;;5095214;28;20483;-42
2022/03/18 03:03:00;;;;;;;5.38;2.78;;;;;;;;;;5096427;28;20078;-44
2022/03/18 03:08:10;;;;;;;6.63;3.80;;;;;;;;;;5099412;28;20109;-42
2022/03/18 03:10:38;;;;;;;5.07;2.05;;;;;;;;;;5097752;28;20031;-41
2022/03/18 03:13:06;;;;;;;5.25;2.22;;;;;;;;;;5099312;28;20036;-44
2022/03/18 03:15:31;;;;;;;10.43;4.88;;;;;;;;;;5096566;28;20059;-40
2022/03/18 03:17:57;;;;;;;5.90;3.78;;;;;;;;;;5099003;28;20065;-40
2022/03/18 03:20:22;;;;;;;6.75;3.45;;;;;;;;;;5095483;28;20447;-40
2022/03/18 03:22:47;;;;;;;6.28;2.95;;;;;;;;;;5099291;28;20391;-42
2022/03/18 03:25:13;;;;;;;10.13;5.07;;;;;;;;;;5095306;28;20040;-42
2022/03/18 03:27:38;;;;;;;8.32;3.67;;;;;;;;;;5094112;28;20044;-44
2022/03/18 03:30:05;;;;;;;18.50;5.18;;;;;;;;;;5095828;28;20036;-43
2022/03/18 03:32:30;;;;;;;18.27;4.53;;;;;;;;;;5097277;28;20114;-43
2022/03/18 03:34:57;;;;;;;8.20;4.38;;;;;;;;;;5098024;28;20131;-42
2022/03/18 03:37:22;;;;;;;6.75;3.95;;;;;;;;;;5095169;28;20055;-42
2022/03/18 03:39:48;;;;;;;4.28;2.45;;;;;;;;;;5095745;28;20700;-45
2022/03/18 03:42:13;;;;;;;8.88;6.65;;;;;;;;;;5097024;28;20036;-44
2022/03/18 03:44:39;;;;;;;7.00;2.40;;;;;;;;;;5097752;28;20043;-41
2022/03/18 03:47:04;;;;;;;5.07;3.00;;;;;;;;;;5094935;28;20036;-42
2022/03/18 03:49:29;;;;;;;9.77;2.75;;;;;;;;;;5097032;28;20059;-45
2022/03/18 03:51:55;;;;;;;6.15;2.90;;;;;;;;;;5094385;28;20040;-41
2022/03/18 03:54:20;;;;;;;13.30;3.80;;;;;;;;;;5094104;28;20048;-41
2022/03/18 03:56:45;;;;;;;8.30;3.38;;;;;;;;;;5098655;28;20048;-41
2022/03/18 03:59:11;;;;;;;8.43;3.85;;;;;;;;;;5096510;28;20508;-43
2022/03/18 04:01:36;;;;;;;7.45;4.50;;;;;;;;;;5095892;28;20039;-42
2022/03/18 04:04:04;;;;;;;4.35;3.40;;;;;;;;;;5095757;28;20054;-40
2022/03/18 04:06:29;;;;;;;9.38;4.97;;;;;;;;;;5096237;28;20040;-45
2022/03/18 04:08:55;;;;;;;10.10;5.20;;;;;;;;;;5097758;28;20092;-43
2022/03/18 04:11:20;;;;;;;26.50;5.47;;;;;;;;;;5093046;28;20055;-41
2022/03/18 04:13:45;;;;;;;6.85;2.80;;;;;;;;;;5098090;28;20071;-41
2022/03/18 04:16:11;;;;;;;11.07;3.88;;;;;;;;;;5096626;28;20457;-43
2022/03/18 04:18:36;;;;;;;13.25;2.88;;;;;;;;;;5093680;28;20052;-41
2022/03/18 04:21:01;;;;;;;9.25;3.03;;;;;;;;;;5094784;28;20115;-41
2022/03/18 04:23:27;;;;;;;8.38;3.63;;;;;;;;;;5097530;28;20443;-42
2022/03/18 04:25:52;;;;;;;9.98;2.95;;;;;;;;;;5096132;28;20043;-41
2022/03/18 04:28:18;;;;;;;12.95;5.85;;;;;;;;;;5095330;28;20039;-41
2022/03/18 04:30:43;;;;;;;8.32;3.80;;;;;;;;;;5094390;28;20059;-41
2022/03/18 04:33:09;;;;;;;11.27;6.35;;;;;;;;;;5096376;28;20039;-42
2022/03/18 04:35:34;;;;;;;19.58;5.85;;;;;;;;;;5098842;28;20123;-42
2022/03/18 04:37:59;;;;;;;8.38;4.63;;;;;;;;;;5095371;28;20048;-46
2022/03/18 04:40:25;;;;;;;10.05;6.13;;;;;;;;;;5096810;28;20056;-41
2022/03/18 04:42:50;;;;;;;23.15;5.72;;;;;;;;;;5096269;28;20503;-43
2022/03/18 04:45:16;;;;;;;11.35;5.70;;;;;;;;;;5094330;28;20028;-42
2022/03/18 04:47:41;;;;;;;8.82;5.32;;;;;;;;;;5096496;28;20112;-42
2022/03/18 04:50:07;;;;;;;18.48;5.13;;;;;;;;;;5096701;28;20055;-41
2022/03/18 04:52:32;;;;;;;12.80;5.10;;;;;;;;;;5095556;28;20125;-41
2022/03/18 04:54:57;;;;;;;9.40;6.88;;;;;;;;;;5095307;28;20081;-44
2022/03/18 04:57:23;;;;;;;21.58;5.88;;;;;;;;;;5097149;28;20043;-42
2022/03/18 04:59:49;;;;;;;19.88;6.78;;;;;;;;;;5100173;28;20086;-43
2022/03/18 05:02:15;;;;;;;8.98;4.95;;;;;;;;;;5099140;28;20069;-43
2022/03/18 05:04:44;;;;;;;11.55;6.00;;;;;;;;;;5098205;28;20044;-43
2022/03/18 05:07:13;;;;;;;18.73;7.80;;;;;;;;;;5099863;28;20092;-40
2022/03/18 05:09:39;;;;;;;10.35;4.80;;;;;;;;;;5101415;28;20040;-43
2022/03/18 05:12:06;;;;;;;10.38;5.35;;;;;;;;;;5099464;28;20071;-43
2022/03/18 05:14:33;;;;;;;9.55;5.13;;;;;;;;;;5100246;28;20051;-43
2022/03/18 05:16:58;;;;;;;13.85;6.15;;;;;;;;;;5098672;28;20518;-44
2022/03/18 05:19:24;;;;;;;7.18;5.03;;;;;;;;;;5100648;28;20059;-43
2022/03/18 05:21:49;;;;;;;8.63;6.13;;;;;;;;;;5098522;28;20410;-43
2022/03/18 05:24:14;;;;;;;9.52;5.95;;;;;;;;;;5098967;28;20042;-40
2022/03/18 05:26:40;;;;;;;8.35;7.43;;;;;;;;;;5098995;28;20035;-45
2022/03/18 05:29:06;;;;;;;11.30;6.47;;;;;;;;;;5101439;28;20064;-43
2022/03/18 05:31:32;;;;;;;19.30;7.43;;;;;;;;;;5097374;28;20043;-41
2022/03/18 05:33:57;;;;;;;12.32;6.97;;;;;;;;;;5097723;28;20040;-43
2022/03/18 05:36:23;;;;;;;12.27;7.72;;;;;;;;;;5100778;28;20072;-42
2022/03/18 05:38:48;;;;;;;16.20;6.05;;;;;;;;;;5099502;27;20469;-42
2022/03/18 05:41:13;;;;;;;9.35;6.47;;;;;;;;;;5101023;28;20051;-42
2022/03/18 05:43:40;;;;;;;6.72;6.03;;;;;;;;;;5101491;28;20537;-41
2022/03/18 05:46:05;;;;;;;14.32;5.13;;;;;;;;;;5102763;28;20043;-42
2022/03/18 05:48:31;;;;;;;10.73;8.50;;;;;;;;;;5100804;28;20051;-41
2022/03/18 05:50:56;;;;;;;14.88;8.38;;;;;;;;;;5098872;28;20519;-45
2022/03/18 05:53:21;;;;;;;14.23;9.40;;;;;;;;;;5099551;28;20554;-42
2022/03/18 05:58:31;;;;;;;22.33;7.93;;;;;;;;;;5098103;28;20708;-43
2022/03/18 06:00:56;;;;;;;15.30;9.38;;;;;;;;;;5100632;28;20122;-45
2022/03/18 06:03:22;;;;;;;12.63;7.65;;;;;;;;;;5096235;28;20036;-40
2022/03/18 06:05:47;;;;;;;10.70;7.90;;;;;;;;;;5098247;28;20395;-41
2022/03/18 06:13:48;;;;;;;;;;;;;;;;;;5081076;28;20128;-40
2022/03/18 06:16:13;;;;;;;25.80;11.20;;;;;;;;;;5100443;28;19955;-47
2022/03/18 06:18:38;;;;;;;21.13;10.18;;;;;;;;;;5102424;28;20396;-40
2022/03/18 06:21:07;;;;;;;7.97;6.72;;;;;;;;;;5097501;28;20406;-41
2022/03/18 06:23:33;;;;;;;6.47;4.70;;;;;;;;;;5097116;28;20040;-41
2022/03/18 06:26:01;;;;;;;17.77;10.40;;;;;;;;;;5099714;28;20067;-44
2022/03/18 06:28:27;;;;;;;19.35;14.10;;;;;;;;;;5094606;28;20128;-41
2022/03/18 06:30:52;;;;;;;10.68;8.95;;;;;;;;;;5097687;28;20080;-40
2022/03/18 06:33:17;;;;;;;9.15;5.30;;;;;;;;;;5097754;28;20441;-42
2022/03/18 06:35:43;;;;;;;13.60;6.03;;;;;;;;;;5095992;28;20036;-40
2022/03/18 06:38:08;;;;;;;19.52;10.40;;;;;;;;;;5099025;28;20623;-41
2022/03/18 06:40:34;;;;;;;9.15;6.15;;;;;;;;;;5096706;28;20045;-44
2022/03/18 06:42:59;;;;;;;15.07;4.82;;;;;;;;;;5095788;28;20051;-40
2022/03/18 06:45:24;;;;;;;29.42;9.90;;;;;;;;;;5095269;27;20040;-43
2022/03/18 06:47:50;;;;;;;19.65;12.85;;;;;;;;;;5092703;28;20031;-40
2022/03/18 06:50:15;;;;;;;20.58;10.18;;;;;;;;;;5092255;28;20043;-42
2022/03/18 06:52:41;;;;;;;16.63;10.75;;;;;;;;;;5093211;27;20134;-40
2022/03/18 06:55:07;;;;;;;10.50;6.95;;;;;;;;;;5096101;28;20635;-42
2022/03/18 06:57:32;;;;;;;8.55;3.63;;;;;;;;;;5092562;28;20043;-42
2022/03/18 06:59:57;;;;;;;11.73;6.78;;;;;;;;;;5095288;28;20050;-43
2022/03/18 07:02:24;;;;;;;23.00;10.27;;;;;;;;;;5098466;28;20048;-40
2022/03/18 07:04:49;;;;;;;24.35;12.90;;;;;;;;;;5093860;28;20039;-43
2022/03/18 07:07:15;;;;;;;31.25;12.55;;;;;;;;;;5095624;28;20063;-41
2022/03/18 07:09:40;;;;;;;16.58;10.82;;;;;;;;;;5095058;28;20988;-40
2022/03/18 07:12:06;;;;;;;21.27;10.63;;;;;;;;;;5095273;28;20074;-41
2022/03/18 07:14:32;;;;;;;31.83;15.73;;;;;;;;;;5090588;28;20127;-43
2022/03/18 07:19:41;;;;;;;14.38;8.45;;;;;;;;;;5093627;28;20078;-43
2022/03/18 07:22:06;;;;;;;27.05;10.20;;;;;;;;;;5092445;28;20044;-43
2022/03/18 07:24:32;;;;;;;18.15;10.98;;;;;;;;;;5092911;28;20047;-41
2022/03/18 07:26:57;;;;;;;12.95;9.23;;;;;;;;;;5094152;28;20351;-42
2022/03/18 07:29:23;;;;;;;20.55;10.63;;;;;;;;;;5092208;28;20048;-42
2022/03/18 07:31:48;;;;;;;24.05;12.38;;;;;;;;;;5094562;28;20044;-45
2022/03/18 07:34:13;;;;;;;12.63;8.43;;;;;;;;;;5093744;28;20051;-41
2022/03/18 07:36:39;;;;;;;15.55;8.65;;;;;;;;;;5090825;28;20074;-42
2022/03/18 07:39:04;;;;;;;22.10;8.70;;;;;;;;;;5089959;28;20044;-46
2022/03/18 07:41:30;;;;;;;11.30;8.13;;;;;;;;;;5095136;28;20513;-51
2022/03/18 07:43:55;;;;;;;25.73;8.18;;;;;;;;;;5095542;28;20050;-47
2022/03/18 07:46:21;;;;;;;13.60;6.65;;;;;;;;;;5095884;28;20036;-50
2022/03/18 07:48:46;;;;;;;11.30;5.60;;;;;;;;;;5095321;28;20059;-50
2022/03/18 07:51:12;;;;;;;13.35;8.50;;;;;;;;;;5092666;28;20537;-47
2022/03/18 07:53:37;;;;;;;22.65;8.00;;;;;;;;;;5094303;28;20047;-46
2022/03/18 07:56:04;;;;;;;9.07;5.53;;;;;;;;;;5095629;28;20047;-44
2022/03/18 07:58:29;;;;;;;9.63;4.95;;;;;;;;;;5091136;28;20396;-44
2022/03/18 08:00:55;;;;;;;16.40;7.95;;;;;;;;;;5089612;28;20160;-48
2022/03/18 08:03:20;;;;;;;12.32;7.10;;;;;;;;;;5090788;28;20630;-46
2022/03/18 08:05:47;;;;;;;12.65;6.25;;;;;;;;;;5093767;28;20062;-47
2022/03/18 08:08:12;;;;;;;23.13;7.50;;;;;;;;;;5095598;28;20108;-46
2022/03/18 08:10:38;;;;;;;16.88;9.48;;;;;;;;;;5091644;28;20609;-47
2022/03/18 08:13:03;;;;;;;8.57;7.30;;;;;;;;;;5094933;28;20494;-49
2022/03/18 08:15:29;;;;;;;24.40;11.95;;;;;;;;;;5093743;28;20036;-44
2022/03/18 08:17:54;;;;;;;10.25;6.88;;;;;;;;;;5093745;28;20040;-47
2022/03/18 08:20:20;;;;;;;11.02;8.90;;;;;;;;;;5093176;28;20044;-44
2022/03/18 08:22:46;;;;;;;17.75;9.70;;;;;;;;;;5096330;28;20042;-46
2022/03/18 08:25:12;;;;;;;22.38;12.43;;;;;;;;;;5094507;28;20694;-45
2022/03/18 08:27:38;;;;;;;14.30;8.32;;;;;;;;;;5096903;28;20415;-47
2022/03/18 08:30:04;;;;;;;12.65;8.15;;;;;;;;;;5095025;28;20174;-49
2022/03/18 08:32:29;;;;;;;12.10;8.10;;;;;;;;;;5090662;28;20371;-46
2022/03/18 08:34:55;;;;;;;24.63;8.02;;;;;;;;;;5090114;28;20736;-48
2022/03/18 08:37:56;;;;;;;33.58;8.13;;;;;;;;;;5092053;28;20135;-47
2022/03/18 08:40:06;;;;;;;18.73;6.53;;;;;;;;;;5094026;28;20051;-49
2022/03/18 08:42:31;;;;;;;12.75;5.80;;;;;;;;;;5095948;28;20114;-44
2022/03/18 08:44:57;;;;;;;16.50;7.90;;;;;;;;;;5093623;28;20593;-45
2022/03/18 08:47:25;;;;;;;12.20;8.32;;;;;;;;;;5094360;28;20402;-46
2022/03/18 08:49:51;;;;;;;18.45;8.55;;;;;;;;;;5096420;28;20522;-46
2022/03/18 08:52:16;;;;;;;16.52;8.43;;;;;;;;;;5091127;28;20051;-48
2022/03/18 08:54:42;;;;;;;6.55;4.55;;;;;;;;;;5094874;28;20121;-46
2022/03/18 08:57:07;;;;;;;7.88;5.88;;;;;;;;;;5096035;28;20048;-50
2022/03/18 08:59:33;;;;;;;13.15;6.45;;;;;;;;;;5091856;28;20043;-48
2022/03/18 09:01:58;;;;;;;13.23;7.97;;;;;;;;;;5093735;28;20048;-47
2022/03/18 09:04:24;;;;;;;12.23;5.15;;;;;;;;;;5094652;28;20067;-49
2022/03/18 09:06:49;;;;;;;24.60;6.45;;;;;;;;;;5091648;28;20044;-46
2022/03/18 09:09:14;;;;;;;19.65;8.20;;;;;;;;;;5087609;28;20853;-47
2022/03/18 09:11:41;;;;;;;6.75;5.97;;;;;;;;;;5088632;28;20537;-50
2022/03/18 09:14:07;;;;;;;13.35;6.05;;;;;;;;;;5090501;28;20052;-50
2022/03/18 09:16:36;;;;;;;20.00;8.05;;;;;;;;;;5092154;28;20701;-46
2022/03/18 09:19:02;;;;;;;15.32;7.18;;;;;;;;;;5093164;28;20058;-44
2022/03/18 09:21:27;;;;;;;9.95;5.50;;;;;;;;;;5092868;28;20040;-48
2022/03/18 09:23:52;;;;;;;11.63;5.70;;;;;;;;;;5090373;28;20048;-49
2022/03/18 09:26:17;;;;;;;13.85;5.78;;;;;;;;;;5091420;28;20154;-51
2022/03/18 09:28:43;;;;;;;7.38;4.28;;;;;;;;;;5092994;28;20475;-50
2022/03/18 09:31:08;;;;;;;8.40;6.18;;;;;;;;;;5091270;28;20043;-47
2022/03/18 09:33:34;;;;;;;7.50;6.55;;;;;;;;;;5091550;28;20035;-48
2022/03/18 09:36:00;;;;;;;12.88;8.48;;;;;;;;;;5091077;28;20052;-48
2022/03/18 09:38:25;;;;;;;13.32;5.60;;;;;;;;;;5089493;28;20027;-49
2022/03/18 09:40:51;;;;;;;11.82;4.05;;;;;;;;;;5089504;28;20081;-54
2022/03/18 09:43:17;;;;;;;8.43;4.72;;;;;;;;;;5092492;28;20182;-58
2022/03/18 09:45:42;;;;;;;8.57;4.95;;;;;;;;;;5095065;28;20486;-50
2022/03/18 09:48:09;;;;;;;4.97;3.45;;;;;;;;;;5095834;28;20045;-48
2022/03/18 09:50:36;;;;;;;7.25;2.85;;;;;;;;;;5092715;28;20058;-56
2022/03/18 09:53:01;;;;;;;2.70;2.05;;;;;;;;;;5094332;28;20063;-57
2022/03/18 09:55:30;;;;;;;7.38;4.00;;;;;;;;;;5093113;28;20070;-57
2022/03/18 09:57:55;;;;;;;6.70;3.63;;;;;;;;;;5096775;28;20469;-56
2022/03/18 10:00:20;;;;;;;12.93;4.97;;;;;;;;;;5090958;28;20039;-57
2022/03/18 10:02:46;;;;;;;11.23;3.80;;;;;;;;;;5095205;27;20149;-48
2022/03/18 10:05:11;;;;;;;3.40;2.22;;;;;;;;;;5099154;28;20048;-51
2022/03/18 10:07:36;;;;;;;7.07;4.65;;;;;;;;;;5095657;28;20039;-47
2022/03/18 10:10:10;;;;;;;11.95;4.93;;;;;;;;;;5094471;28;20079;-49
2022/03/18 10:12:36;;;;;;;12.85;4.97;;;;;;;;;;5092760;28;20048;-49
2022/03/18 10:15:05;;;;;;;8.18;4.32;;;;;;;;;;5094667;28;20126;-49
2022/03/18 10:17:38;;;;;;;8.73;5.53;;;;;;;;;;5095625;28;20138;-52
2022/03/18 10:20:04;;;;;;;12.77;7.32;;;;;;;;;;5092938;28;20119;-44
2022/03/18 10:22:30;;;;;;;16.02;6.57;;;;;;;;;;5095763;28;20040;-47
2022/03/18 10:24:55;;;;;;;9.30;5.35;;;;;;;;;;5096449;27;20043;-51
2022/03/18 10:27:23;;;;;;;10.40;5.88;;;;;;;;;;5097222;28;20039;-50
2022/03/18 10:29:49;;;;;;;4.03;2.85;;;;;;;;;;5096280;28;20076;-50
2022/03/18 10:32:16;;;;;;;7.68;4.88;;;;;;;;;;5093897;28;20136;-49
2022/03/18 10:37:38;;;;;;;3.78;2.80;;;;;;;;;;5097241;28;20143;-49
2022/03/18 10:40:03;;;;;;;5.95;2.83;;;;;;;;;;5094137;28;20150;-48
2022/03/18 10:42:30;;;;;;;10.00;5.57;;;;;;;;;;5094660;28;20529;-54
2022/03/18 10:44:59;;;;;;;4.53;4.13;;;;;;;;;;5092905;28;21352;-50
2022/03/18 10:47:37;;;;;;;8.35;4.40;;;;;;;;;;5093150;28;20071;-53
2022/03/18 10:50:02;;;;;;;10.68;5.13;;;;;;;;;;5096983;28;20054;-50
2022/03/18 10:52:28;;;;;;;6.80;3.80;;;;;;;;;;5098416;28;20055;-53
2022/03/18 10:54:54;;;;;;;7.55;3.90;;;;;;;;;;5095550;28;20607;-51
2022/03/18 10:57:19;;;;;;;5.10;4.60;;;;;;;;;;5094892;28;20506;-51
2022/03/18 10:59:44;;;;;;;11.57;5.70;;;;;;;;;;5092352;28;20058;-53
2022/03/18 11:02:11;;;;;;;6.53;4.07;;;;;;;;;;5091301;28;20649;-50
2022/03/18 11:04:37;;;;;;;15.95;8.30;;;;;;;;;;5096808;28;20570;-54
2022/03/18 11:12:31;;;;;;;16.50;5.30;;;;;;;;;;5092927;28;20129;-50
2022/03/18 11:14:57;;;;;;;12.63;4.70;;;;;;;;;;5093694;28;20131;-51
2022/03/18 11:17:23;;;;;;;8.88;4.35;;;;;;;;;;5094331;28;20084;-49
2022/03/18 11:19:49;;;;;;;8.25;4.07;;;;;;;;;;5096107;28;20044;-52
2022/03/18 11:22:16;;;;;;;7.30;4.55;;;;;;;;;;5098791;28;20134;-51
2022/03/18 11:24:42;;;;;;;6.70;4.82;;;;;;;;;;5094656;28;20047;-51
2022/03/18 11:27:07;;;;;;;8.38;4.18;;;;;;;;;;5096463;28;20040;-53
2022/03/18 11:29:34;;;;;;;9.40;5.75;;;;;;;;;;5095122;28;20149;-52
2022/03/18 11:32:12;;;;;;;8.15;5.95;;;;;;;;;;5092731;28;20036;-49
2022/03/18 11:34:44;;;;;;;13.38;6.60;;;;;;;;;;5092700;28;20044;-50
2022/03/18 11:37:12;;;;;;;;;;;;;;;;;;5094500;28;20520;-50
2022/03/18 11:39:38;;;;;;;10.05;7.63;;;;;;;;;;5095781;28;19926;-50
2022/03/18 11:42:16;;;;;;;21.35;7.18;;;;;;;;;;5095457;28;20497;-51
2022/03/18 11:44:43;;;;;;;8.27;5.85;;;;;;;;;;5094685;28;20071;-51
2022/03/18 11:47:28;;;;;;;6.65;3.88;;;;;;;;;;5096685;28;20055;-51
2022/03/18 11:49:54;;;;;;;17.15;4.53;;;;;;;;;;5095864;28;20051;-52
2022/03/18 11:52:19;;;;;;;3.92;2.05;;;;;;;;;;5095632;28;20032;-52
2022/03/18 11:54:55;;;;;;;13.27;5.32;;;;;;;;;;5096612;28;20048;-53
2022/03/18 11:57:42;;;;;;;5.75;3.97;;;;;;;;;;5095906;28;20134;-51
2022/03/18 12:00:28;;;;;;;10.63;5.90;;;;;;;;;;5092972;28;20052;-53
2022/03/18 12:02:53;;;;;;;9.52;5.40;;;;;;;;;;5093043;28;20142;-53
2022/03/18 12:05:20;;;;;;;7.35;4.00;;;;;;;;;;5092929;28;20055;-52
2022/03/18 12:07:49;;;;;;;8.95;5.72;;;;;;;;;;5093382;28;20050;-51
2022/03/18 12:10:15;;;;;;;10.20;5.95;;;;;;;;;;5091120;28;20130;-53
2022/03/18 12:12:40;;;;;;;6.70;4.80;;;;;;;;;;5091476;28;20040;-50
2022/03/18 12:15:12;;;;;;;12.73;4.82;;;;;;;;;;5093754;27;20054;-54
2022/03/18 12:17:44;;;;;;;4.40;3.80;;;;;;;;;;5091515;28;20671;-53
2022/03/18 12:20:11;;;;;;;8.43;2.67;;;;;;;;;;5094388;28;20046;-52
2022/03/18 12:22:37;;;;;;;6.07;3.80;;;;;;;;;;5091858;28;20042;-51
2022/03/18 12:25:04;;;;;;;7.93;3.90;;;;;;;;;;5092375;28;20374;-50
2022/03/18 12:27:30;;;;;;;26.15;14.48;;;;;;;;;;5092613;28;20046;-48
2022/03/18 12:29:58;;;;;;;19.30;9.25;;;;;;;;;;5092636;28;20048;-49
2022/03/18 12:32:24;;;;;;;14.35;6.43;;;;;;;;;;5091692;28;20051;-51
2022/03/18 12:34:51;;;;;;;7.32;5.25;;;;;;;;;;5088573;28;20043;-48
2022/03/18 12:37:22;;;;;;;24.77;4.47;;;;;;;;;;5090418;28;20040;-51
2022/03/18 12:40:07;;;;;;;4.93;3.17;;;;;;;;;;5094266;28;20060;-50
2022/03/18 12:42:49;;;;;;;14.00;5.40;;;;;;;;;;5093003;28;20126;-47
2022/03/18 12:45:29;;;;;;;12.70;4.03;;;;;;;;;;5090790;28;20403;-51
2022/03/18 12:47:59;;;;;;;4.88;3.72;;;;;;;;;;5094198;28;20118;-50
2022/03/18 12:50:26;;;;;;;7.30;4.68;;;;;;;;;;5093134;28;20052;-48
2022/03/18 12:52:52;;;;;;;11.82;4.80;;;;;;;;;;5090349;28;20134;-49
2022/03/18 12:55:18;;;;;;;8.55;3.78;;;;;;;;;;5093313;28;20483;-47
2022/03/18 12:57:43;;;;;;;6.30;2.13;;;;;;;;;;5091875;28;20136;-46
2022/03/18 13:00:11;;;;;;;7.35;4.80;;;;;;;;;;5089866;28;20051;-46
2022/03/18 13:02:37;;;;;;;14.10;4.03;;;;;;;;;;5092730;28;20066;-49
2022/03/18 13:05:05;;;;;;;4.45;4.00;;;;;;;;;;5092695;28;20032;-49
2022/03/18 13:07:30;;;;;;;23.15;11.90;;;;;;;;;;5093723;28;20039;-51
2022/03/18 13:09:55;;;;;;;14.43;8.07;;;;;;;;;;5091797;28;20712;-52
2022/03/18 13:12:31;;;;;;;18.27;8.52;;;;;;;;;;5091345;28;20048;-51
2022/03/18 13:14:56;;;;;;;12.63;7.95;;;;;;;;;;5093124;28;20147;-50
2022/03/18 13:17:30;;;;;;;12.23;6.47;;;;;;;;;;5092649;28;20142;-51
2022/03/18 13:19:56;;;;;;;12.43;6.88;;;;;;;;;;5096883;28;20466;-51
2022/03/18 13:22:22;;;;;;;20.15;6.95;;;;;;;;;;5098433;28;20051;-45
2022/03/18 13:24:48;;;;;;;10.70;6.95;;;;;;;;;;5098900;28;20104;-51
2022/03/18 13:27:13;;;;;;;12.23;7.03;;;;;;;;;;5095316;28;20036;-50
2022/03/18 13:35:11;;;;;;;27.58;8.90;;;;;;;;;;5096318;28;20097;-47
2022/03/18 13:37:36;;;;;;;17.58;9.07;;;;;;;;;;5094379;28;20086;-49
2022/03/18 13:40:12;;;;;;;11.85;6.05;;;;;;;;;;5095964;28;20131;-44
2022/03/18 13:42:37;;;;;;;12.73;7.10;;;;;;;;;;5096508;28;20541;-50
2022/03/18 13:45:03;;;;;;;17.05;6.05;;;;;;;;;;5094676;28;20036;-47
2022/03/18 13:47:28;;;;;;;18.20;8.30;;;;;;;;;;5096992;28;20467;-54
2022/03/18 13:49:58;;;;;;;15.68;6.82;;;;;;;;;;5097914;28;20051;-49
2022/03/18 13:52:50;;;;;;;24.05;8.50;;;;;;;;;;5095894;28;20051;-48
2022/03/18 13:55:32;;;;;;;16.02;6.25;;;;;;;;;;5097658;28;20350;-50
2022/03/18 13:57:58;;;;;;;15.52;4.90;;;;;;;;;;5098242;28;20621;-51
2022/03/18 14:00:27;;;;;;;7.40;5.95;;;;;;;;;;5094998;28;20077;-51
2022/03/18 14:03:02;;;;;;;11.45;6.03;;;;;;;;;;5096690;28;20119;-51
2022/03/18 14:05:28;;;;;;;24.08;8.15;;;;;;;;;;5095231;28;20040;-50
2022/03/18 14:07:53;;;;;;;7.00;5.38;;;;;;;;;;5095691;28;20070;-49
2022/03/18 14:10:23;;;;;;;7.13;5.07;;;;;;;;;;5096547;28;20778;-50
2022/03/18 14:13:08;;;;;;;7.40;4.43;;;;;;;;;;5096425;28;20056;-48
2022/03/18 14:15:35;;;;;;;4.35;2.75;;;;;;;;;;5092966;28;20567;-47
2022/03/18 14:18:02;;;;;;;25.23;6.20;;;;;;;;;;5097155;28;20059;-46
2022/03/18 14:20:29;;;;;;;13.13;5.50;;;;;;;;;;5096340;28;20052;-49
2022/03/18 14:22:55;;;;;;;10.68;5.80;;;;;;;;;;5093103;28;20052;-46
2022/03/18 14:25:22;;;;;;;33.13;7.97;;;;;;;;;;5097307;28;20063;-48
2022/03/18 14:27:50;;;;;;;11.60;5.72;;;;;;;;;;5095625;28;20055;-46
2022/03/18 14:30:24;;;;;;;15.85;7.05;;;;;;;;;;5095793;28;20040;-47
2022/03/18 14:32:51;;;;;;;7.30;4.95;;;;;;;;;;5095615;28;20150;-46
2022/03/18 14:35:17;;;;;;;10.55;6.20;;;;;;;;;;5098402;28;20131;-49
2022/03/18 14:37:42;;;;;;;20.88;7.22;;;;;;;;;;5095479;28;20150;-45
2022/03/18 14:40:08;;;;;;;12.57;5.80;;;;;;;;;;5094820;28;20101;-50
2022/03/18 14:42:34;;;;;;;26.20;8.00;;;;;;;;;;5094617;28;20121;-45
2022/03/18 14:44:59;;;;;;;12.57;4.55;;;;;;;;;;5091481;28;20064;-47
2022/03/18 14:47:25;;;;;;;14.10;7.47;;;;;;;;;;5094596;28;20047;-47
2022/03/18 14:49:50;;;;;;;16.42;8.25;;;;;;;;;;5096493;28;20057;-50
2022/03/18 14:52:16;;;;;;;13.23;6.68;;;;;;;;;;5097759;28;20090;-46
2022/03/18 14:57:25;;;;;;;17.27;8.07;;;;;;;;;;5094051;28;20070;-45
2022/03/18 14:59:50;;;;;;;8.45;5.65;;;;;;;;;;5096247;28;20047;-45
2022/03/18 15:02:16;;;;;;;7.18;5.78;;;;;;;;;;5097135;28;20511;-45
2022/03/18 15:04:41;;;;;;;11.13;7.60;;;;;;;;;;5096701;28;20040;-45